aussie ACE2'S WEATHER STATIONaussie

Speaker Icon Turns Ambient Background Sounds ON/OFF
Select which page style from below(a cookie will remember your selection for future use for style)
Standard Style Theme Current Conditions Style Changer

Latitude S 35° 06' 39"   Longitude E 138° 31' 40"   Elevation 102 m

OBSERVATIONS  0 - 24  HOURS

00-24 HOURS 24-48 HOURS 48-72 HOURS 72-96 HOURS 96-120 HOURS Navigation Menu

Date/Time
WST
temperature
°C
Dew Point
°C
Humidity
%
Wind Speed
km/h
Wind Gust
km/h
Wind
Direction
Barometer
mb
Rain Today
mm
20/11:30pm 14.5 9.7 73 1.1 5.0 1013.2 0.0
20/11:00pm 15.1 9.9 71 3.6 9.7 1013.2 0.0
20/10:30pm 14.8 9.4 70 1.1 11.2 1013.2 0.0
20/10:00pm 14.9 7.2 60 2.5 7.2 1013.2 0.0
20/09:30pm 16.0 2.4 40 7.2 14.8 1013.2 0.0
20/09:00pm 16.5 1.0 35 5.0 23.4 1013.2 0.0
20/08:30pm 16.4 2.1 38 5.0 23.4 1013.2 0.0
20/08:00pm 16.4 2.1 38 13.3 25.6 1013.2 0.0
20/07:30pm 16.4 2.8 40 11.2 25.6 1013.2 0.0
20/07:00pm 16.6 3.0 40 9.7 29.5 1013.2 0.0
20/06:30pm 16.8 3.1 40 3.6 22.0 1013.2 0.0
20/06:00pm 17.0 3.3 40 12.2 24.5 1013.2 0.0
20/05:30pm 17.4 3.7 40 8.6 29.5 1013.2 0.0
20/05:00pm 17.8 3.3 38 8.6 33.1 1013.2 0.0
20/04:30pm 18.3 3.4 37 7.2 25.6 1013.2 0.0
20/04:00pm 18.8 3.8 37 7.2 15.8 1013.2 0.0
20/03:30pm 19.4 4.0 36 8.6 23.4 1013.2 0.0
20/03:00pm 19.6 3.3 34 7.2 20.9 1013.2 0.0
20/02:30pm 20.1 3.3 33 8.6 20.9 1013.2 0.0
20/02:00pm 21.3 3.9 32 9.7 22.0 1013.2 0.0
20/01:30pm 19.7 3.0 33 6.1 19.4 1013.2 0.0
20/01:00pm 19.0 3.2 35 6.1 23.4 1013.2 0.0
20/12:30pm 18.5 2.4 34 6.1 20.9 1013.2 0.0
20/12:00pm 20.4 2.7 31 13.3 23.4 1013.2 0.0
20/11:30am 20.1 2.5 31 6.1 24.5 1013.2 0.0
20/11:00am 19.3 1.8 31 6.1 17.3 1013.2 0.0
20/10:30am 18.5 1.1 31 7.2 20.9 1013.2 0.0
20/10:00am 17.5 0.6 32 11.2 23.4 1013.2 0.0
20/09:30am 17.0 1.8 36 6.1 23.4 1013.2 0.0
20/09:00am 16.6 1.5 36 14.8 20.9 1013.2 0.0
20/08:30am 16.0 1.7 38 6.1 20.9 1013.2 0.0
20/08:00am 13.9 1.2 42 6.1 18.4 1013.2 0.0
20/07:30am 13.1 0.8 43 13.3 20.9 1013.2 0.0
20/07:00am 13.1 0.8 43 11.2 17.3 1013.2 0.0
20/06:30am 13.3 1.0 43 12.2 24.5 1013.2 0.0
20/06:00am 13.5 1.5 44 11.2 20.9 1013.2 0.0
20/05:30am 13.5 1.5 44 11.2 15.8 1013.2 0.0
20/05:00am 13.4 1.7 45 2.5 20.9 1013.2 0.0
20/04:30am 13.4 1.7 45 8.6 20.9 1013.2 0.0
20/04:00am 13.7 2.0 45 11.2 25.6 1013.2 0.0
20/03:30am 13.3 1.9 46 3.6 15.8 1013.2 0.0
20/03:00am 12.8 2.1 48 5.0 17.3 1013.2 0.0
20/02:30am 12.9 1.9 47 7.2 22.0 1013.2 0.0
20/02:00am 12.7 2.3 49 5.0 17.3 1013.2 0.0
20/01:30am 12.3 2.7 52 3.6 9.7 1013.2 0.0
20/01:00am 12.5 1.5 47 5.0 12.2 1013.2 0.0
20/12:30am 12.5 1.5 47 3.6 11.2 1013.2 0.0
20/12:00am 12.7 2.0 48 1.1 8.6 1013.2 0.0
19/11:30pm 13.1 3.2 51 7.2 15.8 1013.2 0.0
19/11:00pm 13.2 3.8 53 3.6 14.8 1013.2 0.0

OBSERVATIONS  24 - 48  HOURS

00-24 HOURS 24-48 HOURS 48-72 HOURS 72-96 HOURS 96-120 HOURS Navigation Menu

Date/Time
WST
temperature
°C
Dew Point
°C
Humidity
%
Wind Speed
km/h
Wind Gust
km/h
Wind
Direction
Barometer
mb
Rain Today
mm
19/11:30pm 13.1 3.2 51 7.2 15.8 1013.2 0.0
19/11:00pm 13.2 3.8 53 3.6 14.8 1013.2 0.0
19/10:30pm 12.9 3.6 53 5.0 11.2 1013.2 0.0
19/10:00pm 12.1 4.8 61 2.5 7.2 1013.2 0.0
19/09:30pm 11.7 5.6 66 3.6 7.2 1013.2 0.0
19/09:07pm 11.3 6.0 70 3.6 6.1 1013.2 0.0
19/08:30pm 11.3 6.0 70 2.5 7.2 1013.2 0.0
19/08:00pm 11.3 6.2 71 3.6 5.0 1013.2 0.0
19/07:30pm 11.0 6.5 74 1.1 5.0 1013.2 0.0
19/07:00pm 9.9 6.1 77 2.5 3.6 1013.2 0.0
19/06:30pm 10.2 5.4 72 0.0 0.0 1013.2 0.0
19/06:00pm 11.6 6.3 70 0.0 5.0 1013.2 0.0
19/05:30pm 13.0 6.4 64 0.0 2.5 1013.2 0.0
19/05:00pm 14.2 7.3 63 1.1 3.6 1013.2 0.0
19/04:30pm 15.3 7.6 60 1.1 6.1 1013.2 0.0
19/04:00pm 15.9 7.1 56 2.5 8.6 1013.2 0.0
19/03:30pm 16.9 7.3 53 1.1 7.2 1013.2 0.0
19/03:00pm 17.4 6.9 50 2.5 8.6 1013.2 0.0
19/02:30pm 18.3 4.8 41 5.0 8.6 1013.2 0.0
19/02:00pm 20.4 6.7 41 3.6 19.4 1013.2 0.0
19/01:30pm 18.3 6.5 46 2.5 9.7 1013.2 0.0
19/01:00pm 17.0 5.9 48 7.2 14.8 1013.2 0.0
19/12:30pm 16.4 5.7 49 3.6 11.2 1013.2 0.0
19/12:00pm 18.9 6.1 43 5.0 15.8 1013.2 0.0
19/11:30am 18.7 6.9 46 2.5 13.3 1013.2 0.0
19/11:00am 18.3 8.3 52 2.5 9.7 1013.2 0.0
19/10:30am 14.5 6.8 60 11.2 17.3 1013.2 0.0
19/10:00am 14.3 6.9 61 7.2 12.2 1013.2 0.0
19/09:30am 13.6 6.9 64 7.2 14.8 1013.2 0.0
19/09:00am 13.5 7.7 68 5.0 13.3 1013.2 0.0
19/08:30am 12.3 11.0 92 5.0 8.6 1013.2 0.0
19/08:00am 9.1 8.3 95 5.0 9.7 1013.2 0.0
19/07:30am 8.4 7.6 95 2.5 6.1 1013.2 0.0
19/07:00am 8.4 7.5 94 3.6 6.1 1013.2 0.0
19/06:30am 8.5 7.6 94 0.0 8.6 1013.2 0.0
19/06:00am 8.5 7.6 94 1.1 5.0 1013.2 0.0
19/05:30am 8.7 7.8 94 2.5 6.1 1013.2 0.0
19/05:00am 8.7 7.8 94 1.1 6.1 1013.2 0.0
19/04:30am 8.3 7.2 93 1.1 3.6 1013.2 0.0
19/04:00am 8.5 7.4 93 0.0 5.0 1013.2 0.0
19/03:30am 8.2 7.0 92 1.1 5.0 1013.2 0.0
19/03:00am 8.3 7.1 92 2.5 5.0 1013.2 0.0
19/02:30am 8.6 7.4 92 0.0 6.1 1013.2 0.0
19/02:00am 9.0 7.8 92 2.5 7.2 1013.2 0.0
19/01:30am 9.0 7.6 91 5.0 6.1 1013.2 0.0
19/01:00am 9.2 7.8 91 1.1 7.2 1013.2 0.0
19/12:30am 9.3 7.7 90 3.6 5.0 1013.2 0.0
19/12:00am 9.6 8.0 90 1.1 6.1 1013.2 0.0
19/12:00am 9.6 8.0 90 1.1 6.1 1013.2 0.0
18/11:24pm 10.8 8.6 86 0.0 0.0 1013.2 0.9

OBSERVATIONS  48 - 72  HOURS

00-24 HOURS 24-48 HOURS 48-72 HOURS 72-96 HOURS 96-120 HOURS Navigation Menu

Date/Time
WST
temperature
°C
Dew Point
°C
Humidity
%
Wind Speed
km/h
Wind Gust
km/h
Wind
Direction
Barometer
mb
Rain Today
mm
19/12:00am 9.6 8.0 90 1.1 6.1 1013.2 0.0
18/11:24pm 10.8 8.6 86 0.0 0.0 1013.2 0.9
18/10:54pm 10.8 8.2 84 0.0 1.1 1013.2 0.9
18/10:24pm 11.0 8.0 82 1.1 2.5 1013.2 0.9
18/09:54pm 11.5 8.2 80 1.1 2.5 1013.2 0.9
18/09:24pm 12.1 8.4 78 1.1 2.5 1013.2 0.9
18/08:54pm 13.0 8.3 73 3.6 5.0 1013.2 0.9
18/08:24pm 13.8 9.2 74 2.5 5.0 1013.2 0.9
18/07:30pm 11.1 9.0 87 0.0 1.1 1013.2 0.9
18/07:00pm 10.8 8.6 86 0.0 3.6 1013.2 0.9
18/06:30pm 10.7 7.9 83 0.0 2.5 1013.2 0.9
18/06:00pm 11.1 8.0 81 1.1 5.0 1013.2 0.9
18/05:30pm 11.5 8.2 80 1.1 6.1 1013.2 0.9
18/05:00pm 12.3 8.4 77 2.5 8.6 1013.2 0.9
18/04:30pm 13.3 8.6 73 2.5 6.1 1013.2 0.9
18/04:00pm 13.9 9.3 74 2.5 5.0 1013.2 0.9
18/03:30pm 13.5 9.0 74 1.1 8.6 1013.2 0.9
18/03:00pm 13.4 8.7 73 3.6 8.6 1013.2 0.9
18/02:30pm 13.6 8.7 72 3.6 8.6 1013.2 0.9
18/02:00pm 14.7 9.7 72 5.0 11.2 1013.2 0.9
18/01:30pm 15.3 9.9 70 3.6 8.6 1013.2 0.9
18/01:00pm 14.6 9.6 72 3.6 9.7 1013.2 0.9
18/12:30pm 14.2 10.0 76 2.5 7.2 1013.2 0.9
18/12:00pm 13.6 10.0 79 2.5 9.7 1013.2 0.6
18/11:30am 13.0 9.8 81 3.6 8.6 1013.2 0.6
18/11:00am 13.0 9.8 81 2.5 8.6 1013.2 0.6
18/10:30am 12.9 10.3 84 6.1 8.6 1013.2 0.6
18/10:00am 13.0 10.7 86 2.5 6.1 1013.2 0.6
18/09:30am 12.3 11.4 94 3.6 9.7 1013.2 0.6
18/09:00am 11.9 11.4 97 2.5 7.2 1013.2 0.6
18/08:30am 11.7 11.4 98 2.5 7.2 1013.2 0.6
18/08:00am 11.7 11.4 98 2.5 6.1 1013.2 0.6
18/07:30am 11.8 11.7 99 3.6 6.1 1013.2 0.6
18/07:00am 11.6 11.3 98 1.1 3.6 1013.2 0.6
18/06:30am 11.7 11.4 98 2.5 3.6 1013.2 0.6
18/06:00am 11.7 11.4 98 0.0 2.5 1013.2 0.6
18/05:30am 11.6 11.3 98 1.1 2.5 1013.2 0.6
18/05:00am 11.7 11.4 98 1.1 3.6 1013.2 0.6
18/04:30am 11.7 11.4 98 0.0 2.5 1013.2 0.6
18/04:00am 11.8 11.5 98 0.0 1.1 1013.2 0.6
18/03:30am 11.8 11.3 97 0.0 0.0 1013.2 0.6
18/03:00am 11.7 11.2 97 0.0 1.1 1013.2 0.6
18/02:30am 11.7 11.2 97 0.0 5.0 1013.2 0.0
18/02:00am 11.5 10.9 96 0.0 0.0 1013.2 0.0
18/01:30am 11.6 11.0 96 0.0 2.5 1013.2 0.0
18/01:00am 11.9 11.3 96 0.0 2.5 1013.2 0.0
18/12:30am 11.9 11.3 96 0.0 2.5 1013.2 0.0
18/12:00am 11.9 11.1 95 0.0 2.5 1013.2 0.0
17/11:30pm 11.6 10.7 94 0.0 3.6 1013.2 2.1
17/11:00pm 11.4 10.5 94 0.0 2.5 1013.2 2.1

OBSERVATIONS  72 - 96  HOURS

00-24 HOURS 24-48 HOURS 48-72 HOURS 72-96 HOURS 96-120 HOURS Navigation Menu

Date/Time
WST
temperature
°C
Dew Point
°C
Humidity
%
Wind Speed
km/h
Wind Gust
km/h
Wind
Direction
Barometer
mb
Rain Today
mm
17/11:30pm 11.6 10.7 94 0.0 3.6 1013.2 2.1
17/11:00pm 11.4 10.5 94 0.0 2.5 1013.2 2.1
17/10:30pm 11.9 11.0 94 1.1 3.6 1013.2 2.1
17/10:00pm 11.9 10.8 93 3.6 6.1 1013.2 2.1
17/09:30pm 12.0 10.7 92 0.0 1.1 1013.2 2.1
17/09:00pm 12.1 10.7 91 0.0 6.1 1013.2 2.1
17/08:30pm 12.2 10.4 89 5.0 6.1 1013.2 1.8
17/08:00pm 12.6 9.4 81 2.5 5.0 1013.2 0.9
17/07:30pm 12.7 9.9 83 2.5 3.6 1013.2 0.9
17/07:00pm 12.6 9.8 83 0.0 1.1 1013.2 0.9
17/06:30pm 12.5 9.9 84 0.0 3.6 1013.2 0.9
17/06:00pm 12.5 9.7 83 0.0 2.5 1013.2 0.9
17/05:30pm 12.5 9.1 80 1.1 3.6 1013.2 0.9
17/05:00pm 13.1 9.2 77 1.1 3.6 1013.2 0.9
17/04:30pm 13.4 8.9 74 2.5 8.6 1013.2 0.9
17/04:00pm 14.0 9.2 73 2.5 5.0 1013.2 0.9
17/03:30pm 14.0 9.2 73 1.1 5.0 1013.2 0.9
17/03:00pm 13.7 9.0 73 3.6 8.6 1013.2 0.9
17/02:30pm 14.6 9.4 71 5.0 8.6 1013.2 0.9
17/02:00pm 14.4 9.2 71 1.1 6.1 1013.2 0.9
17/01:30pm 14.7 9.5 71 2.5 6.1 1013.2 0.9
17/01:00pm 14.1 9.1 72 1.1 8.6 1013.2 0.9
17/12:30pm 14.1 9.5 74 3.6 9.7 1013.2 0.9
17/12:00pm 14.1 11.4 84 3.6 7.2 1013.2 0.9
17/11:30am 11.8 9.0 83 5.0 11.2 1013.2 0.6
17/11:00am 13.3 7.9 70 3.6 11.2 1013.2 0.6
17/10:30am 13.2 8.5 73 3.6 14.8 1013.2 0.6
17/10:00am 13.4 8.7 73 5.0 8.6 1013.2 0.6
17/09:30am 12.7 9.3 80 2.5 7.2 1013.2 0.6
17/09:00am 11.8 9.9 88 5.0 7.2 1013.2 0.6
17/08:30am 11.6 10.7 94 0.0 3.6 1013.2 2.1
17/08:00am 11.2 8.1 81 1.1 6.1 1013.2 0.6
17/07:30am 11.4 7.5 77 1.1 7.2 1013.2 0.6
17/07:00am 11.3 7.4 77 1.1 5.0 1013.2 0.6
17/06:30am 11.1 7.2 77 3.6 6.1 1013.2 0.6
17/06:00am 11.0 7.1 77 0.0 2.5 1013.2 0.6
17/05:30am 11.0 6.7 75 1.1 5.0 1013.2 0.6
17/05:00am 11.0 7.1 77 2.5 5.0 1013.2 0.6
17/04:30am 11.0 7.1 77 2.5 5.0 1013.2 0.6
17/04:00am 10.8 7.9 82 2.5 7.2 1013.2 0.6
17/03:30am 10.6 9.4 92 2.5 6.1 1013.2 0.6
17/03:00am 10.5 9.7 95 6.1 11.2 1013.2 0.6
17/02:30am 10.9 10.3 96 5.0 15.8 1013.2 0.3
17/02:00am 10.7 9.9 95 2.5 8.6 1013.2 0.3
17/01:30am 12.0 11.4 96 1.1 8.6 1013.2 0.0
17/01:00am 10.6 9.8 95 2.5 5.0 1013.2 0.0
17/12:30am 12.0 11.2 95 2.5 5.0 1013.2 0.0
17/12:00am 12.0 11.1 94 1.1 3.6 1013.2 0.0
16/11:30pm 11.9 11.0 94 1.1 3.6 1013.2 0.6
16/11:00pm 11.8 10.9 94 0.0 3.6 1013.2 0.6

OBSERVATIONS  96 - 120  HOURS

00-24 HOURS 24-48 HOURS 48-72 HOURS 72-96 HOURS 96-120 HOURS Navigation Menu

Date/Time
WST
temperature
°C
Dew Point
°C
Humidity
%
Wind Speed
km/h
Wind Gust
km/h
Wind
Direction
Barometer
mb
Rain Today
mm
16/11:30pm 11.9 11.0 94 1.1 3.6 1013.2 0.6
16/11:00pm 11.8 10.9 94 0.0 3.6 1013.2 0.6
16/10:30pm 11.9 11.0 94 0.0 3.6 1013.2 0.6
16/10:00pm 12.2 11.1 93 0.0 3.6 1013.2 0.6
16/09:30pm 12.2 11.1 93 3.6 6.1 1013.2 0.6
16/09:00pm 12.4 11.3 93 2.5 3.6 1013.2 0.6
16/08:30pm 12.0 10.9 93 0.0 2.5 1013.2 0.6
16/08:00pm 13.0 11.4 90 0.0 2.5 1013.2 0.6
16/07:30pm 11.7 10.4 92 1.1 2.5 1013.2 0.6
16/07:00pm 11.4 10.1 92 0.0 0.0 1013.2 0.6
16/06:30pm 11.4 10.0 91 0.0 3.6 1013.2 0.6
16/06:00pm 11.4 9.8 90 0.0 2.5 1013.2 0.6
16/05:30pm 11.5 9.6 88 0.0 2.5 1013.2 0.6
16/05:00pm 12.3 10.2 87 0.0 2.5 1013.2 0.6
16/04:30pm 12.7 9.7 82 0.0 2.5 1013.2 0.6
16/04:00pm 13.2 10.0 81 0.0 2.5 1013.2 0.6
16/03:30pm 13.5 10.3 81 0.0 2.5 1013.2 0.6
16/03:00pm 13.5 9.9 79 1.1 2.5 1013.2 0.6
16/02:30pm 14.7 10.9 78 1.1 3.6 1013.2 0.6
16/02:00pm 15.0 11.2 78 1.1 3.6 1013.2 0.6
16/01:30pm 14.6 11.0 79 6.1 7.2 1013.2 0.6
16/01:00pm 15.1 12.2 83 1.1 3.6 1013.2 0.6
16/12:30pm 14.5 10.9 79 2.5 7.2 1013.2 0.6
16/12:00pm 15.0 12.0 82 1.1 2.5 1013.2 0.6
16/11:30am 15.3 13.8 91 1.1 8.6 1013.2 0.6
16/11:00am 14.0 13.4 96 1.1 5.0 1013.2 0.6
16/10:30am 14.4 14.3 99 0.0 2.5 1013.2 0.6
16/10:00am 13.4 13.3 99 0.0 3.6 1013.2 0.6
16/09:30am 12.8 12.7 99 0.0 1.1 1013.2 0.6
16/09:00am 12.0 11.9 99 0.0 1.1 1013.2 0.6
16/08:30am 11.6 11.5 99 0.0 0.0 1013.2 0.6
16/08:00am 11.2 11.1 99 0.0 2.5 1013.2 0.6
16/07:30am 11.0 10.9 99 0.0 0.0 1013.2 0.6
16/07:00am 11.1 11.0 99 0.0 0.0 1013.2 0.6
16/06:30am 11.0 10.9 99 0.0 0.0 1013.2 0.6
16/06:00am 11.0 10.9 99 0.0 0.0 1013.2 0.3
16/05:30am 10.9 10.6 98 0.0 1.1 1013.2 0.3
16/05:00am 10.8 10.5 98 0.0 0.0 1013.2 0.3
16/04:30am 10.8 10.5 98 0.0 2.5 1013.2 0.3
16/04:00am 10.8 10.5 98 0.0 0.0 1013.2 0.3
16/03:30am 10.9 10.6 98 0.0 2.5 1013.2 0.3
16/03:00am 11.0 10.7 98 0.0 0.0 1013.2 0.0
16/02:30am 11.1 10.8 98 0.0 0.0 1013.2 0.0
16/02:00am 11.4 11.1 98 0.0 0.0 1013.2 0.0
16/01:30am 11.4 11.1 98 0.0 0.0 1013.2 0.0
16/01:00am 11.4 11.1 98 0.0 0.0 1013.2 0.0
16/12:30am 11.6 11.3 98 0.0 2.5 1013.2 0.0
16/12:00am 11.7 11.4 98 1.1 3.6 1013.2 0.0
15/11:30pm 11.7 11.4 98 0.0 1.1 1013.2 0.9
15/11:00pm 11.8 11.5 98 2.5 3.6 1013.2 0.9

00-24 HOURS 24-48 HOURS 48-72 HOURS 72-96 HOURS 96-120 HOURS Navigation Menu


PLEASE CONSIDER LIKING/SHARING ON FACEBOOK WITH LINK ABOVE
THANK YOU.

Check out my video archive on my YouTube channel which has all my time-lapse videos created
Please feel free to donate to help with improvements and keep this site going with the link below(PayPal)
Cumulus Top Weather Sites World Weather Websites Paulen Top 100 Weatherstation List

Page updated 20/07/2019 11:30 PM
powered by Cumulusv1.9.4 (1099)
Free counters!
Insect leftPhyllium MonteithiInsect Right
Visit my FaceBook group : Australian Leaf Insect Care/Information Sharing


Speaker Icon Turns Ambient Background Sounds ON/OFF